Time;durP1;ratioP1;P1;durP2;ratioP2;P2;SDS_P1;SDS_P2;PMS_P1;PMS_P2;Temp;Humidity;BMP_temperature;BMP_pressure;BME280_temperature;BME280_humidity;BME280_pressure;Samples;Min_cycle;Max_cycle;Signal;HPM_P1;HPM_P2
2022/06/01 00:01:06;;;;;;;8.48;5.60;;;12.80;99.90;;;;;;5025953;28;20037;-83
2022/06/01 00:03:35;;;;;;;7.35;6.57;;;12.80;99.90;;;;;;5027101;28;20056;-83
2022/06/01 00:06:00;;;;;;;7.03;5.60;;;12.80;99.90;;;;;;5023606;28;20069;-84
2022/06/01 00:08:26;;;;;;;10.18;7.45;;;12.70;99.90;;;;;;5024259;28;20076;-83
2022/06/01 00:10:53;;;;;;;11.00;8.20;;;12.80;99.90;;;;;;5026661;28;20032;-84
2022/06/01 00:13:19;;;;;;;9.65;7.28;;;12.70;99.90;;;;;;5029234;28;20017;-84
2022/06/01 00:15:45;;;;;;;9.15;8.18;;;12.70;99.90;;;;;;5014800;28;20491;-83
2022/06/01 00:18:11;;;;;;;11.85;7.43;;;12.70;99.90;;;;;;5028308;28;20030;-83
2022/06/01 00:20:37;;;;;;;10.25;7.93;;;12.70;99.90;;;;;;5020590;28;20106;-84
2022/06/01 00:23:03;;;;;;;9.65;7.28;;;12.70;99.90;;;;;;5026716;28;20064;-84
2022/06/01 00:25:29;;;;;;;10.57;8.23;;;12.70;99.90;;;;;;5021619;28;20037;-83
2022/06/01 00:27:54;;;;;;;12.32;8.35;;;12.70;99.90;;;;;;5029924;28;20469;-84
2022/06/01 00:30:21;;;;;;;9.35;8.38;;;12.70;99.90;;;;;;5027732;28;20111;-84
2022/06/01 00:32:47;;;;;;;12.35;8.52;;;12.70;99.90;;;;;;5028223;28;20033;-84
2022/06/01 00:35:15;;;;;;;13.63;8.23;;;12.70;99.90;;;;;;5026891;28;20025;-84
2022/06/01 00:37:41;;;;;;;10.02;7.10;;;12.60;99.90;;;;;;5026649;28;20481;-84
2022/06/01 00:40:09;;;;;;;11.30;6.93;;;12.60;99.90;;;;;;5020250;28;20036;-84
2022/06/01 00:42:37;;;;;;;13.35;8.07;;;12.60;99.90;;;;;;5021560;28;20037;-85
2022/06/01 00:45:03;;;;;;;9.90;8.07;;;12.60;99.90;;;;;;5015529;28;20048;-84
2022/06/01 00:47:28;;;;;;;8.00;7.18;;;12.60;99.90;;;;;;5028068;28;20034;-84
2022/06/01 00:50:00;;;;;;;9.82;7.93;;;12.50;99.90;;;;;;5021264;28;20433;-84
2022/06/01 00:52:36;;;;;;;12.52;7.90;;;12.50;99.90;;;;;;5038279;28;20033;-84
2022/06/01 00:55:10;;;;;;;11.77;8.65;;;12.50;99.90;;;;;;5026238;28;20132;-84
2022/06/01 00:57:36;;;;;;;11.13;7.93;;;12.50;99.90;;;;;;5015542;28;20040;-84
2022/06/01 01:00:11;;;;;;;8.48;7.68;;;12.40;99.90;;;;;;5022977;28;20034;-84
2022/06/01 01:02:37;;;;;;;10.05;7.90;;;12.50;99.90;;;;;;5028706;28;20021;-84
2022/06/01 01:05:05;;;;;;;8.60;7.45;;;12.40;99.90;;;;;;5028135;28;20025;-83
2022/06/01 01:07:31;;;;;;;10.15;7.43;;;12.40;99.90;;;;;;5024765;28;20394;-83
2022/06/01 01:09:57;;;;;;;10.32;7.70;;;12.40;99.90;;;;;;5028655;28;20475;-82
2022/06/01 01:12:23;;;;;;;9.40;6.68;;;12.40;99.90;;;;;;5027641;28;20029;-83
2022/06/01 01:14:48;;;;;;;9.30;7.90;;;12.30;99.90;;;;;;5027783;28;20028;-83
2022/06/01 01:17:14;;;;;;;9.80;6.60;;;12.30;99.90;;;;;;5018192;28;20033;-83
2022/06/01 01:19:47;;;;;;;10.80;7.75;;;12.30;99.90;;;;;;5014479;28;20026;-83
2022/06/01 01:22:21;;;;;;;;;;;12.40;99.90;;;;;;5011018;28;20030;-83
2022/06/01 01:25:17;;;;;;;8.52;7.63;;;12.30;99.90;;;;;;5034526;28;19909;-84
2022/06/01 01:27:45;;;;;;;14.80;8.13;;;12.30;99.90;;;;;;5025299;28;20036;-84
2022/06/01 01:30:23;;;;;;;10.35;8.30;;;12.20;99.90;;;;;;5027994;28;20438;-83
2022/06/01 01:32:49;;;;;;;13.60;7.88;;;12.20;99.90;;;;;;5039208;28;20022;-83
2022/06/01 01:35:15;;;;;;;10.57;7.57;;;12.20;99.90;;;;;;5024253;28;20071;-83
2022/06/01 01:37:41;;;;;;;9.00;7.57;;;12.10;99.90;;;;;;5029275;28;20112;-83
2022/06/01 01:40:07;;;;;;;20.05;8.05;;;12.10;99.90;;;;;;5029434;28;20383;-83
2022/06/01 01:42:32;;;;;;;10.60;7.68;;;12.10;99.90;;;;;;5029762;28;20030;-85
2022/06/01 01:45:24;;;;;;;9.05;8.13;;;12.10;99.90;;;;;;5018498;28;20030;-84
2022/06/01 01:47:51;;;;;;;9.80;8.35;;;12.10;99.90;;;;;;5029101;28;20029;-85
2022/06/01 01:50:18;;;;;;;9.27;8.27;;;12.10;99.90;;;;;;5027452;28;20414;-85
2022/06/01 01:52:44;;;;;;;9.55;7.55;;;12.10;99.90;;;;;;5028435;28;20047;-86
2022/06/01 01:55:39;;;;;;;10.30;8.75;;;12.00;99.90;;;;;;5027696;28;20091;-85
2022/06/01 01:58:14;;;;;;;11.63;7.68;;;12.00;99.90;;;;;;5026869;28;20044;-84
2022/06/01 02:00:44;;;;;;;11.10;7.40;;;12.00;99.90;;;;;;5022048;28;20025;-84
2022/06/01 02:03:42;;;;;;;8.45;6.47;;;12.00;99.90;;;;;;5033435;28;20037;-86
2022/06/01 02:06:28;;;;;;;10.70;8.13;;;12.00;99.90;;;;;;5037098;28;20034;-84
2022/06/01 02:09:07;;;;;;;13.27;7.30;;;12.00;99.90;;;;;;5030175;28;20128;-86
2022/06/01 02:14:32;;;;;;;7.65;6.50;;;11.90;99.90;;;;;;5032864;28;20088;-84
2022/06/01 02:16:58;;;;;;;8.43;7.47;;;11.90;99.90;;;;;;5030367;28;20037;-84
2022/06/01 02:19:28;;;;;;;7.00;6.30;;;11.90;99.90;;;;;;5040932;28;20252;-84
2022/06/01 02:21:54;;;;;;;8.18;7.22;;;11.90;99.90;;;;;;5039088;28;20061;-85
2022/06/01 02:24:21;;;;;;;8.75;7.43;;;11.90;99.90;;;;;;5032109;28;20435;-84
2022/06/01 02:26:49;;;;;;;9.00;7.40;;;11.90;99.90;;;;;;5030966;28;21708;-85
2022/06/01 02:29:20;;;;;;;9.52;8.13;;;11.90;99.90;;;;;;5030664;28;20041;-84
2022/06/01 02:31:46;;;;;;;9.35;7.57;;;11.80;99.90;;;;;;5022289;28;20040;-84
2022/06/01 02:34:12;;;;;;;9.13;7.63;;;11.80;99.90;;;;;;5019953;28;20084;-86
2022/06/01 02:36:40;;;;;;;9.90;7.43;;;11.80;99.90;;;;;;5027395;28;20076;-84
2022/06/01 02:39:08;;;;;;;9.18;7.45;;;11.80;99.90;;;;;;5032240;28;20216;-84
2022/06/01 02:44:18;;;;;;;9.25;8.05;;;11.80;99.90;;;;;;5031953;28;20040;-84
2022/06/01 02:46:44;;;;;;;11.02;7.68;;;11.80;99.90;;;;;;5030168;28;20029;-84
2022/06/01 02:49:10;;;;;;;8.35;7.25;;;11.70;99.90;;;;;;5035407;28;20041;-83
2022/06/01 02:51:35;;;;;;;11.60;8.27;;;11.70;99.90;;;;;;5030839;28;20034;-83
2022/06/01 02:54:00;;;;;;;10.82;8.43;;;11.70;99.90;;;;;;5029697;28;20120;-85
2022/06/01 02:56:26;;;;;;;12.00;8.98;;;11.70;99.90;;;;;;5030166;28;20037;-83
2022/06/01 02:58:52;;;;;;;12.27;9.35;;;11.70;99.90;;;;;;5030874;28;20438;-85
2022/06/01 03:01:17;;;;;;;10.27;8.82;;;11.70;99.90;;;;;;5031102;28;20059;-85
2022/06/01 03:03:43;;;;;;;10.85;9.00;;;11.70;99.90;;;;;;5028062;28;20466;-84
2022/06/01 03:06:08;;;;;;;11.60;9.48;;;11.70;99.90;;;;;;5028701;28;20030;-84
2022/06/01 03:08:35;;;;;;;11.60;9.32;;;11.70;99.90;;;;;;5026605;28;20045;-84
2022/06/01 03:11:00;;;;;;;11.25;9.30;;;11.70;99.90;;;;;;5018743;28;20045;-84
2022/06/01 03:13:26;;;;;;;12.32;9.48;;;11.70;99.90;;;;;;5026852;28;20029;-83
2022/06/01 03:15:53;;;;;;;12.27;10.70;;;11.70;99.90;;;;;;5028242;28;20394;-84
2022/06/01 03:18:20;;;;;;;14.73;10.70;;;11.70;99.90;;;;;;5027100;28;20112;-84
2022/06/01 03:20:46;;;;;;;11.93;9.57;;;11.70;99.90;;;;;;5046595;28;20051;-83
2022/06/01 03:23:11;;;;;;;13.38;11.05;;;11.70;99.90;;;;;;5026966;28;20394;-83
2022/06/01 03:25:38;;;;;;;17.02;10.15;;;11.70;99.90;;;;;;5024438;28;20038;-83
2022/06/01 03:28:05;;;;;;;15.48;10.52;;;11.70;99.90;;;;;;5031002;28;20037;-84
2022/06/01 03:30:32;;;;;;;13.18;10.15;;;11.70;99.90;;;;;;5046174;28;20041;-84
2022/06/01 03:32:57;;;;;;;16.13;10.95;;;11.70;99.90;;;;;;5044471;28;20029;-83
2022/06/01 03:35:26;;;;;;;15.57;12.00;;;11.70;99.90;;;;;;5046051;28;20569;-83
2022/06/01 03:37:52;;;;;;;14.48;10.63;;;11.60;99.90;;;;;;5045282;28;20044;-84
2022/06/01 03:40:20;;;;;;;15.40;11.63;;;11.70;99.90;;;;;;5021133;28;20029;-83
2022/06/01 03:42:45;;;;;;;15.68;11.65;;;11.70;99.90;;;;;;5025612;28;20041;-83
2022/06/01 03:47:56;;;;;;;14.85;10.77;;;11.70;99.90;;;;;;5029603;28;20036;-83
2022/06/01 03:50:23;;;;;;;14.80;11.73;;;11.70;99.90;;;;;;5029577;28;20397;-83
2022/06/01 03:52:50;;;;;;;16.23;11.25;;;11.70;99.90;;;;;;5043090;28;20033;-83
2022/06/01 03:55:16;;;;;;;18.33;12.52;;;11.80;99.90;;;;;;5029176;28;20111;-83
2022/06/01 03:57:43;;;;;;;17.85;11.98;;;11.80;99.90;;;;;;5028365;28;20056;-83
2022/06/01 04:00:13;;;;;;;14.80;11.93;;;11.80;99.90;;;;;;5030748;28;20034;-84
2022/06/01 04:02:40;;;;;;;18.58;11.98;;;11.80;99.90;;;;;;5027189;28;20115;-84
2022/06/01 04:05:06;;;;;;;13.98;11.45;;;11.80;99.90;;;;;;5028175;28;20029;-84
2022/06/01 04:07:32;;;;;;;13.90;10.80;;;11.90;99.90;;;;;;5024174;28;20032;-84
2022/06/01 04:09:57;;;;;;;12.70;9.98;;;11.90;99.90;;;;;;5030399;28;20037;-84
2022/06/01 04:12:22;;;;;;;13.50;10.10;;;12.00;99.90;;;;;;5028882;28;20403;-83
2022/06/01 04:14:48;;;;;;;15.32;10.98;;;12.00;99.90;;;;;;5023883;28;20088;-83
2022/06/01 04:17:14;;;;;;;14.68;10.70;;;12.10;99.90;;;;;;5027008;28;20122;-84
2022/06/01 04:19:39;;;;;;;13.85;10.25;;;12.10;99.90;;;;;;5030660;28;20030;-84
2022/06/01 04:22:07;;;;;;;15.95;10.38;;;12.10;99.90;;;;;;5030109;28;20057;-84
2022/06/01 04:24:34;;;;;;;12.40;9.82;;;12.10;99.90;;;;;;5028136;28;20841;-83
2022/06/01 04:27:00;;;;;;;13.48;9.82;;;12.20;99.90;;;;;;5029654;28;20034;-82
2022/06/01 04:29:26;;;;;;;13.35;9.85;;;12.20;99.90;;;;;;5026499;28;20039;-84
2022/06/01 04:32:15;;;;;;;10.43;9.07;;;12.20;99.90;;;;;;5021248;28;20029;-85
2022/06/01 04:34:41;;;;;;;12.00;9.38;;;12.30;99.90;;;;;;5026901;28;20044;-83
2022/06/01 04:37:07;;;;;;;11.00;8.35;;;12.30;99.90;;;;;;5024828;28;20041;-83
2022/06/01 04:39:32;;;;;;;11.65;8.88;;;12.30;99.90;;;;;;5030273;28;20087;-83
2022/06/01 04:41:58;;;;;;;13.35;9.13;;;12.30;99.90;;;;;;5028650;28;20481;-82
2022/06/01 04:44:23;;;;;;;11.25;8.00;;;12.40;99.90;;;;;;5030794;28;20100;-82
2022/06/01 04:46:49;;;;;;;10.63;7.10;;;12.40;99.90;;;;;;5028021;28;20095;-83
2022/06/01 04:49:15;;;;;;;9.85;7.22;;;12.30;99.90;;;;;;5029503;28;20736;-82
2022/06/01 04:51:40;;;;;;;10.90;7.30;;;12.30;99.90;;;;;;5030053;28;20033;-83
2022/06/01 04:54:07;;;;;;;9.02;7.93;;;12.30;99.90;;;;;;5026999;28;20035;-84
2022/06/01 04:56:33;;;;;;;9.65;6.57;;;12.30;99.90;;;;;;5025239;28;20033;-84
2022/06/01 04:58:58;;;;;;;9.65;7.45;;;12.30;99.90;;;;;;5028414;28;20065;-83
2022/06/01 05:01:24;;;;;;;10.65;6.97;;;12.30;99.90;;;;;;5030651;28;20483;-82
2022/06/01 05:03:49;;;;;;;8.40;7.47;;;12.30;99.90;;;;;;5031545;28;20033;-84
2022/06/01 05:06:15;;;;;;;10.45;5.72;;;12.30;99.90;;;;;;5029171;28;20037;-83
2022/06/01 05:08:41;;;;;;;7.72;6.55;;;12.30;99.90;;;;;;5015780;28;20040;-83
2022/06/01 05:11:06;;;;;;;9.23;6.93;;;12.30;99.90;;;;;;5024775;28;20140;-82
2022/06/01 05:13:32;;;;;;;8.05;5.60;;;12.30;99.90;;;;;;5025726;28;20026;-83
2022/06/01 05:15:59;;;;;;;9.13;6.32;;;12.40;99.90;;;;;;5024332;28;21644;-83
2022/06/01 05:18:26;;;;;;;7.25;5.63;;;12.40;99.90;;;;;;5029227;28;20029;-81
2022/06/01 05:20:55;;;;;;;6.30;5.28;;;12.40;99.90;;;;;;5027591;28;20036;-81
2022/06/01 05:23:22;;;;;;;5.80;5.13;;;12.40;99.90;;;;;;5028481;28;20037;-82
2022/06/01 05:25:49;;;;;;;5.93;5.30;;;12.40;99.90;;;;;;5026079;28;20442;-81
2022/06/01 05:28:24;;;;;;;5.57;4.68;;;12.60;99.90;;;;;;5029220;28;20034;-81
2022/06/01 05:30:49;;;;;;;5.90;3.78;;;12.80;99.90;;;;;;5021432;28;20025;-82
2022/06/01 05:33:15;;;;;;;4.70;3.33;;;12.90;99.90;;;;;;5025852;28;20022;-81
2022/06/01 05:35:41;;;;;;;5.05;4.20;;;13.00;99.90;;;;;;5020526;28;20039;-83
2022/06/01 05:38:06;;;;;;;4.28;3.55;;;13.20;99.90;;;;;;5031127;28;20037;-82
2022/06/01 05:40:32;;;;;;;4.05;3.15;;;13.30;99.90;;;;;;5028031;28;20386;-84
2022/06/01 05:42:58;;;;;;;5.70;3.63;;;13.40;99.90;;;;;;5022569;28;20026;-81
2022/06/01 05:48:47;;;;;;;6.55;3.60;;;13.70;99.90;;;;;;5011770;28;20622;-83
2022/06/01 05:51:12;;;;;;;5.50;3.58;;;13.80;99.70;;;;;;5001872;28;20505;-83
2022/06/01 05:53:38;;;;;;;4.80;3.05;;;13.90;99.80;;;;;;5009830;28;20053;-82
2022/06/01 05:56:03;;;;;;;4.00;2.80;;;13.90;99.70;;;;;;5009826;28;20034;-83
2022/06/01 05:58:29;;;;;;;3.60;3.20;;;14.00;99.10;;;;;;5012759;28;20062;-83
2022/06/01 06:01:00;;;;;;;4.05;3.17;;;14.10;98.80;;;;;;5009887;28;20042;-81
2022/06/01 06:03:26;;;;;;;3.47;2.85;;;14.20;98.70;;;;;;5027628;28;20022;-82
2022/06/01 06:08:38;;;;;;;2.85;2.47;;;14.40;98.40;;;;;;5004200;28;20169;-83
2022/06/01 06:11:06;;;;;;;3.17;2.70;;;14.50;98.60;;;;;;5010701;28;20022;-82
2022/06/01 06:13:35;;;;;;;3.22;2.75;;;14.60;98.50;;;;;;5012161;28;20029;-81
2022/06/01 06:16:02;;;;;;;3.47;2.70;;;14.70;98.40;;;;;;5007729;28;20598;-83
2022/06/01 06:18:27;;;;;;;2.90;2.47;;;14.80;98.00;;;;;;5010754;28;20386;-84
2022/06/01 06:20:53;;;;;;;2.40;2.13;;;14.90;97.70;;;;;;5011880;28;20037;-83
2022/06/01 06:23:18;;;;;;;3.38;2.13;;;15.10;96.90;;;;;;5027767;28;20467;-84
2022/06/01 06:25:44;;;;;;;3.13;2.15;;;15.20;96.30;;;;;;5011121;28;20091;-84
2022/06/01 06:28:10;;;;;;;2.97;2.33;;;15.40;95.70;;;;;;5012486;28;20026;-83
2022/06/01 06:30:38;;;;;;;3.67;2.53;;;15.50;96.10;;;;;;5011990;28;20483;-82
2022/06/01 06:33:04;;;;;;;3.95;2.80;;;15.70;96.70;;;;;;5012303;28;20506;-83
2022/06/01 06:35:30;;;;;;;3.08;2.47;;;15.90;96.40;;;;;;5010075;28;20033;-82
2022/06/01 06:37:55;;;;;;;3.70;2.20;;;15.90;94.60;;;;;;5012194;28;20100;-82
2022/06/01 06:40:21;;;;;;;5.00;2.67;;;16.10;95.10;;;;;;5023606;28;20037;-84
2022/06/01 06:42:47;;;;;;;4.45;2.20;;;16.20;93.70;;;;;;4990601;28;20023;-83
2022/06/01 06:45:12;;;;;;;3.47;2.58;;;16.20;94.20;;;;;;5026774;28;20442;-83
2022/06/01 06:47:38;;;;;;;4.82;2.80;;;16.30;94.90;;;;;;5008281;28;20070;-84
2022/06/01 06:50:07;;;;;;;4.38;2.55;;;16.30;94.30;;;;;;4994896;28;20061;-84
2022/06/01 06:52:33;;;;;;;3.65;2.30;;;16.50;94.60;;;;;;4993552;28;20030;-84
2022/06/01 06:54:58;;;;;;;4.82;2.45;;;16.60;94.20;;;;;;4991330;28;20089;-82
2022/06/01 06:57:24;;;;;;;3.28;2.60;;;16.70;93.70;;;;;;5011322;28;20180;-84
2022/06/01 06:59:49;;;;;;;2.75;2.55;;;16.70;94.00;;;;;;5007205;28;20080;-82
2022/06/01 07:02:16;;;;;;;2.97;2.65;;;16.70;94.30;;;;;;5009372;28;20120;-83
2022/06/01 07:04:42;;;;;;;4.25;3.08;;;16.50;94.50;;;;;;5009998;28;20176;-82
2022/06/01 07:07:07;;;;;;;3.40;2.95;;;16.60;95.10;;;;;;5025144;28;20046;-82
2022/06/01 07:09:33;;;;;;;2.78;2.58;;;16.70;95.00;;;;;;5010844;28;20450;-84
2022/06/01 07:11:58;;;;;;;2.80;2.50;;;16.70;94.50;;;;;;5011191;28;20515;-83
2022/06/01 07:14:24;;;;;;;3.28;2.60;;;16.80;94.30;;;;;;5015174;28;20030;-82
2022/06/01 07:16:49;;;;;;;5.07;2.95;;;16.80;93.80;;;;;;5020587;28;20066;-82
2022/06/01 07:19:15;;;;;;;4.53;2.13;;;16.80;93.90;;;;;;5019300;28;20122;-85
2022/06/01 07:21:41;;;;;;;2.67;2.13;;;16.70;93.60;;;;;;5009309;28;20033;-82
2022/06/01 07:24:07;;;;;;;3.78;1.92;;;16.60;93.40;;;;;;5010450;28;20454;-82
2022/06/01 07:26:36;;;;;;;6.45;2.40;;;16.60;94.10;;;;;;5009085;28;20030;-84
2022/06/01 07:29:02;;;;;;;2.75;2.47;;;16.50;94.80;;;;;;5009705;28;20770;-82
2022/06/01 07:31:27;;;;;;;2.60;2.17;;;16.40;94.60;;;;;;5023875;28;20156;-83
2022/06/01 07:33:53;;;;;;;2.33;2.10;;;16.20;94.30;;;;;;5006088;28;20045;-83
2022/06/01 07:36:18;;;;;;;2.50;2.30;;;16.10;94.70;;;;;;5011137;28;20030;-82
2022/06/01 07:44:32;;;;;;;4.60;2.28;;;16.00;95.10;;;;;;5003306;28;20045;-84
2022/06/01 07:46:58;;;;;;;3.47;2.38;;;16.00;95.00;;;;;;5010406;28;20037;-82
2022/06/01 07:49:25;;;;;;;2.17;1.58;;;16.00;94.30;;;;;;4996749;28;20030;-82
2022/06/01 07:51:51;;;;;;;3.08;1.90;;;16.00;94.30;;;;;;5014508;28;20060;-82
2022/06/01 07:54:16;;;;;;;5.45;1.90;;;16.00;94.40;;;;;;5017105;28;20018;-82
2022/06/01 07:56:42;;;;;;;1.92;1.52;;;16.00;94.60;;;;;;5017614;28;20034;-82
2022/06/01 07:59:08;;;;;;;3.42;1.92;;;16.00;93.80;;;;;;5017306;28;20033;-82
2022/06/01 08:01:35;;;;;;;2.90;2.22;;;15.90;93.90;;;;;;5018518;28;20018;-83
2022/06/01 08:04:03;;;;;;;3.83;1.98;;;15.90;94.50;;;;;;5010921;28;20135;-82
2022/06/01 08:06:29;;;;;;;3.75;1.77;;;15.80;94.80;;;;;;5011410;28;20045;-82
2022/06/01 08:08:55;;;;;;;2.75;2.08;;;15.80;94.50;;;;;;5011460;28;20041;-82
2022/06/01 08:13:06;;;;;;;1.90;1.70;;;15.70;95.20;;;;;;5029379;28;20030;-82
2022/06/01 08:14:08;;;;;;;5.50;1.98;;;15.60;95.80;;;;;;5016478;28;20519;-83
2022/06/01 08:16:33;;;;;;;2.08;1.70;;;15.60;96.20;;;;;;5013956;28;20026;-82
2022/06/01 08:18:59;;;;;;;3.00;1.70;;;15.50;96.40;;;;;;5013058;28;20469;-81
2022/06/01 08:21:24;;;;;;;2.67;2.00;;;15.40;96.60;;;;;;5030475;28;20050;-80
2022/06/01 08:23:50;;;;;;;1.90;1.55;;;15.30;96.60;;;;;;5010592;28;20524;-82
2022/06/01 08:26:15;;;;;;;2.47;1.95;;;15.10;97.30;;;;;;5009038;28;20049;-81
2022/06/01 08:28:41;;;;;;;3.08;2.10;;;15.00;97.80;;;;;;5024064;28;20457;-82
2022/06/01 08:31:06;;;;;;;2.40;1.58;;;14.90;98.20;;;;;;5024035;28;20038;-81
2022/06/01 08:33:32;;;;;;;3.70;2.05;;;14.90;98.40;;;;;;5009405;28;20067;-82
2022/06/01 08:35:57;;;;;;;4.85;1.88;;;14.80;98.30;;;;;;4993038;28;20054;-81
2022/06/01 08:38:23;;;;;;;4.88;1.80;;;14.90;98.70;;;;;;5009183;28;20475;-82
2022/06/01 08:40:58;;;;;;;3.03;1.70;;;14.90;98.60;;;;;;5023974;28;20049;-81
2022/06/01 08:43:27;;;;;;;2.05;1.60;;;14.90;98.60;;;;;;5011507;28;20034;-81
2022/06/01 08:45:57;;;;;;;2.03;1.65;;;14.90;98.50;;;;;;5008322;28;20061;-80
2022/06/01 08:48:34;;;;;;;4.22;1.90;;;14.90;99.00;;;;;;5007954;28;20041;-82
2022/06/01 08:51:00;;;;;;;3.00;1.73;;;14.90;99.20;;;;;;5007815;28;20045;-82
2022/06/01 08:53:25;;;;;;;1.63;1.35;;;15.00;98.80;;;;;;5009590;28;20037;-82
2022/06/01 08:55:57;;;;;;;4.13;1.73;;;15.00;98.60;;;;;;5023989;28;20029;-80
2022/06/01 08:59:13;;;;;;;3.00;1.15;;;15.10;98.60;;;;;;5000556;28;20034;-84
2022/06/01 09:01:57;;;;;;;1.50;1.40;;;15.20;98.60;;;;;;4992103;28;20044;-84
2022/06/01 09:04:26;;;;;;;1.60;1.50;;;15.30;98.60;;;;;;4998473;28;20049;-84
2022/06/01 09:07:01;;;;;;;4.38;1.88;;;15.40;98.30;;;;;;5009457;28;20030;-83
2022/06/01 09:09:40;;;;;;;3.15;1.50;;;15.60;99.00;;;;;;5009118;28;20045;-82
2022/06/01 09:12:06;;;;;;;2.97;1.48;;;15.70;98.80;;;;;;5008778;28;20036;-83
2022/06/01 09:14:39;;;;;;;2.00;1.45;;;15.90;97.50;;;;;;5009745;28;20057;-83
2022/06/01 09:17:05;;;;;;;1.60;1.20;;;16.00;97.60;;;;;;5014069;28;20029;-82
2022/06/01 09:22:38;;;;;;;2.58;1.20;;;16.40;97.30;;;;;;5008281;28;20391;-83
2022/06/01 09:25:34;;;;;;;1.73;0.98;;;16.70;96.80;;;;;;5009792;28;20044;-85
2022/06/01 09:28:04;;;;;;;1.52;0.88;;;17.20;95.90;;;;;;5010919;28;20382;-81
2022/06/01 09:30:36;;;;;;;0.80;0.55;;;17.40;94.40;;;;;;5012858;28;20107;-83
2022/06/01 09:33:20;;;;;;;1.48;1.05;;;17.60;93.20;;;;;;5013878;28;20025;-82
2022/06/01 09:36:06;;;;;;;1.45;1.00;;;17.90;94.50;;;;;;5014525;28;20048;-82
2022/06/01 09:38:48;;;;;;;3.65;1.10;;;18.20;94.00;;;;;;5014515;28;20037;-80
2022/06/01 09:41:21;;;;;;;1.55;1.23;;;18.40;93.20;;;;;;4992005;28;20035;-82
2022/06/01 09:43:59;;;;;;;1.25;1.05;;;18.50;92.90;;;;;;4994637;28;20031;-84
2022/06/01 09:46:36;;;;;;;0.95;0.80;;;18.70;93.10;;;;;;4999265;28;20482;-82
2022/06/01 09:49:08;;;;;;;2.42;1.02;;;18.80;92.10;;;;;;4991701;28;20517;-84
2022/06/01 09:51:38;;;;;;;1.58;1.17;;;18.90;90.80;;;;;;5024390;28;20079;-84
2022/06/01 09:54:20;;;;;;;1.88;0.90;;;18.90;91.40;;;;;;5009314;28;20053;-82
2022/06/01 09:56:48;;;;;;;1.23;1.13;;;19.00;90.90;;;;;;5009726;28;20061;-82
2022/06/01 10:08:11;;;;;;;0.73;0.60;;;19.30;91.10;;;;;;5005736;28;20089;-82
2022/06/01 10:10:38;;;;;;;1.42;0.90;;;19.50;89.90;;;;;;5006544;28;20391;-81
2022/06/01 10:13:06;;;;;;;1.30;0.98;;;19.70;90.00;;;;;;5005881;28;20033;-82
2022/06/01 10:15:46;;;;;;;2.70;1.15;;;19.80;87.30;;;;;;4990254;28;20033;-83
2022/06/01 10:18:15;;;;;;;1.85;0.80;;;20.00;86.20;;;;;;4991038;28;20033;-79
2022/06/01 10:20:52;;;;;;;1.77;1.02;;;20.10;84.40;;;;;;5007363;28;20128;-85
2022/06/01 10:23:40;;;;;;;1.60;0.82;;;20.20;85.50;;;;;;5010803;28;20048;-88
2022/06/01 10:26:18;;;;;;;1.30;0.68;;;20.30;85.90;;;;;;5009152;28;20042;-84
2022/06/01 10:28:50;;;;;;;1.35;0.70;;;20.50;88.50;;;;;;5010045;28;20825;-81
2022/06/01 10:31:27;;;;;;;1.00;0.60;;;20.80;88.20;;;;;;5026953;28;20034;-82
2022/06/01 10:34:06;;;;;;;3.47;0.50;;;21.00;86.10;;;;;;5027629;28;20553;-82
2022/06/01 10:37:02;;;;;;;1.60;0.50;;;21.20;85.90;;;;;;5009980;28;20036;-82
2022/06/01 10:39:50;;;;;;;1.25;0.52;;;21.50;82.70;;;;;;5013308;28;20030;-84
2022/06/01 10:43:16;;;;;;;0.77;0.60;;;21.60;83.40;;;;;;5011946;28;20568;-83
2022/06/01 10:45:14;;;;;;;1.48;0.60;;;21.70;81.20;;;;;;4992274;28;20120;-87
2022/06/01 10:48:09;;;;;;;0.90;0.85;;;21.80;82.70;;;;;;4991010;28;20039;-83
2022/06/01 10:50:50;;;;;;;1.25;0.70;;;21.80;80.30;;;;;;4991831;28;20120;-84
2022/06/01 10:53:27;;;;;;;0.95;0.50;;;21.80;80.90;;;;;;5000328;28;20037;-84
2022/06/01 10:55:53;;;;;;;0.73;0.55;;;21.80;82.10;;;;;;5010166;28;20697;-83
2022/06/01 10:58:22;;;;;;;0.63;0.40;;;21.80;79.00;;;;;;5011865;28;20034;-86
2022/06/01 11:01:09;;;;;;;0.80;0.40;;;21.90;82.30;;;;;;5011392;28;20471;-83
2022/06/01 11:03:59;;;;;;;1.52;0.50;;;22.10;77.10;;;;;;5003580;28;20046;-83
2022/06/01 11:07:02;;;;;;;3.60;0.50;;;22.20;76.50;;;;;;5010711;28;20038;-84
2022/06/01 11:09:48;;;;;;;1.40;0.50;;;22.30;77.00;;;;;;5004245;28;20088;-84
2022/06/01 11:12:28;;;;;;;0.90;0.47;;;22.20;74.00;;;;;;5024953;28;20030;-83
2022/06/01 11:15:22;;;;;;;1.35;0.47;;;22.10;72.10;;;;;;5007950;28;20033;-84
2022/06/01 11:18:01;;;;;;;1.98;0.40;;;22.00;72.70;;;;;;5011836;28;20037;-84
2022/06/01 11:20:38;;;;;;;2.03;0.52;;;21.90;70.80;;;;;;5009815;28;20029;-86
2022/06/01 11:23:44;;;;;;;0.73;0.40;;;21.90;73.00;;;;;;5011500;28;20049;-84
2022/06/01 11:26:47;;;;;;;0.85;0.50;;;21.90;73.60;;;;;;5003196;28;20461;-83
2022/06/01 11:29:53;;;;;;;0.85;0.68;;;21.90;75.00;;;;;;4991248;28;20101;-83
2022/06/01 11:32:25;;;;;;;0.40;0.38;;;21.90;75.40;;;;;;4994224;28;20034;-83
2022/06/01 11:35:33;;;;;;;0.77;0.40;;;21.80;70.10;;;;;;5010079;28;20071;-83
2022/06/01 11:38:12;;;;;;;0.82;0.30;;;21.60;70.90;;;;;;5008030;28;20061;-86
2022/06/01 11:40:50;;;;;;;1.13;0.40;;;21.60;72.10;;;;;;5010343;28;20612;-83
2022/06/01 11:43:34;;;;;;;0.65;0.40;;;21.70;71.80;;;;;;5011231;28;20471;-82
2022/06/01 11:46:03;;;;;;;1.02;0.50;;;21.90;71.60;;;;;;5010940;28;20088;-82
2022/06/01 11:48:32;;;;;;;1.08;0.40;;;21.90;68.30;;;;;;5010877;28;20141;-83
2022/06/01 11:51:19;;;;;;;1.23;0.40;;;22.00;69.10;;;;;;5010460;28;20690;-83
2022/06/01 11:54:24;;;;;;;0.60;0.40;;;22.00;71.30;;;;;;5009439;28;20026;-85
2022/06/01 11:57:21;;;;;;;1.48;0.40;;;22.20;70.50;;;;;;5014171;28;20091;-82
2022/06/01 11:59:51;;;;;;;0.70;0.50;;;22.50;73.30;;;;;;5030799;28;20502;-82
2022/06/01 12:02:41;;;;;;;1.02;0.50;;;22.70;70.10;;;;;;5029355;28;20025;-83
2022/06/01 12:05:13;;;;;;;0.63;0.50;;;22.90;69.80;;;;;;5009050;28;20085;-82
2022/06/01 12:07:52;;;;;;;1.73;0.43;;;23.00;68.10;;;;;;5011657;28;20033;-86
2022/06/01 12:10:26;;;;;;;0.60;0.40;;;23.20;66.60;;;;;;5009438;28;20029;-83
2022/06/01 12:12:54;;;;;;;0.73;0.50;;;23.30;69.90;;;;;;5010010;28;20113;-82
2022/06/01 12:15:41;;;;;;;2.17;0.50;;;23.30;66.40;;;;;;5010598;28;20383;-83
2022/06/01 12:18:12;;;;;;;0.70;0.40;;;23.20;65.10;;;;;;5024776;28;20696;-80
2022/06/01 12:20:37;;;;;;;1.88;0.50;;;23.10;64.80;;;;;;5030777;28;20108;-83
2022/06/01 12:29:04;;;;;;;1.02;0.45;;;22.70;66.40;;;;;;5010867;28;20057;-84
2022/06/01 12:31:33;;;;;;;5.25;0.40;;;22.70;67.10;;;;;;5009893;28;20026;-82
2022/06/01 12:34:14;;;;;;;1.50;0.40;;;22.60;67.20;;;;;;5009773;28;20525;-82
2022/06/01 12:36:50;;;;;;;1.00;0.40;;;22.40;66.70;;;;;;5024327;28;20575;-82
2022/06/01 12:39:21;;;;;;;0.63;0.55;;;22.30;65.80;;;;;;5009498;28;20029;-84
2022/06/01 12:41:54;;;;;;;1.20;0.45;;;22.50;66.30;;;;;;5009410;28;20076;-84
2022/06/01 12:44:21;;;;;;;1.00;0.40;;;22.70;66.00;;;;;;5009830;28;20052;-81
2022/06/01 12:46:51;;;;;;;3.00;0.60;;;23.00;65.80;;;;;;5009152;28;20052;-81
2022/06/01 12:49:38;;;;;;;1.08;0.40;;;23.00;61.10;;;;;;5010239;28;20084;-83
2022/06/01 12:52:08;;;;;;;2.45;0.40;;;23.10;63.90;;;;;;5010701;28;20022;-87
2022/06/01 12:54:37;;;;;;;0.70;0.40;;;23.10;63.30;;;;;;5011507;28;20026;-84
2022/06/01 12:57:05;;;;;;;0.60;0.30;;;23.20;62.00;;;;;;5010550;28;20036;-86
2022/06/01 12:59:33;;;;;;;0.57;0.40;;;23.20;60.00;;;;;;5009024;28;20034;-83
2022/06/01 13:02:04;;;;;;;0.30;0.30;;;23.30;61.20;;;;;;5009031;28;20026;-82
2022/06/01 13:04:29;;;;;;;1.67;1.10;;;23.30;61.20;;;;;;5010983;28;20080;-83
2022/06/01 13:06:56;;;;;;;0.47;0.20;;;23.20;59.50;;;;;;5012197;28;20042;-82
2022/06/01 13:09:27;;;;;;;2.60;0.40;;;23.00;63.10;;;;;;5027236;28;20088;-85
2022/06/01 13:12:05;;;;;;;2.05;0.30;;;23.20;61.90;;;;;;5012119;28;20037;-81
2022/06/01 13:14:34;;;;;;;1.35;0.30;;;23.20;59.70;;;;;;5012041;28;20038;-83
2022/06/01 13:17:12;;;;;;;1.27;0.30;;;23.10;60.80;;;;;;5008108;28;20030;-82
2022/06/01 13:19:39;;;;;;;0.63;0.43;;;23.00;59.50;;;;;;5003417;28;20026;-85
2022/06/01 13:22:21;;;;;;;1.05;0.40;;;22.90;59.30;;;;;;5015562;28;20049;-81
2022/06/01 13:24:55;;;;;;;0.80;0.55;;;22.80;59.10;;;;;;5017623;28;20353;-85
2022/06/01 13:27:20;;;;;;;2.83;0.60;;;22.70;59.70;;;;;;5027934;28;20040;-83
2022/06/01 13:29:49;;;;;;;5.07;2.92;;;22.50;60.80;;;;;;5015503;28;20077;-85
2022/06/01 13:32:17;;;;;;;2.10;0.80;;;22.60;63.50;;;;;;5007747;28;20056;-77
2022/06/01 13:34:55;;;;;;;0.70;0.60;;;22.70;60.10;;;;;;5007874;28;20030;-83
2022/06/01 13:37:25;;;;;;;0.75;0.60;;;22.70;59.70;;;;;;5015482;28;20053;-82
2022/06/01 13:39:57;;;;;;;1.30;0.40;;;22.80;61.60;;;;;;5014427;28;20088;-82